Time;durP1;ratioP1;P1;durP2;ratioP2;P2;SDS_P1;SDS_P2;PMS_P1;PMS_P2;Temp;Humidity;BMP_temperature;BMP_pressure;BME280_temperature;BME280_humidity;BME280_pressure;Samples;Min_cycle;Max_cycle;Signal;HPM_P1;HPM_P2
2022/05/28 00:00:53;;;;;;;10.13;5.00;;;;;;;8.40;74.30;98356.72;6157129;23;20024;-79
2022/05/28 00:03:21;;;;;;;11.13;5.00;;;;;;;8.50;73.92;98345.31;6156787;23;20063;-80
2022/05/28 00:05:47;;;;;;;6.10;4.00;;;;;;;8.46;73.70;98322.06;6157501;23;20017;-79
2022/05/28 00:08:14;;;;;;;10.40;3.50;;;;;;;8.71;73.80;98345.69;6183685;23;20021;-80
2022/05/28 00:10:44;;;;;;;6.93;3.60;;;;;;;8.54;73.51;98314.97;6159864;23;20013;-81
2022/05/28 00:13:10;;;;;;;6.15;3.65;;;;;;;8.61;73.46;98313.09;6185043;23;20017;-79
2022/05/28 00:15:36;;;;;;;10.52;3.70;;;;;;;8.77;73.44;98331.69;6132799;23;20024;-80
2022/05/28 00:18:06;;;;;;;7.57;3.55;;;;;;;8.32;73.33;98258.44;6157470;23;20025;-81
2022/05/28 00:20:33;;;;;;;5.35;3.65;;;;;;;8.59;73.67;98308.81;6183667;23;20092;-81
2022/05/28 00:23:00;;;;;;;10.30;4.38;;;;;;;8.66;73.56;98322.47;6157341;23;20063;-81
2022/05/28 00:25:26;;;;;;;11.02;3.83;;;;;;;8.46;73.44;98289.19;6156287;23;20048;-79
2022/05/28 00:27:53;;;;;;;15.85;4.30;;;;;;;8.46;73.12;98301.31;6183198;23;20021;-81
2022/05/28 00:30:20;;;;;;;7.75;3.67;;;;;;;8.43;73.28;98297.03;6183179;23;20028;-80
2022/05/28 00:32:47;;;;;;;8.18;4.13;;;;;;;8.40;73.12;98297.97;6181134;23;20044;-80
2022/05/28 00:35:18;;;;;;;9.25;4.05;;;;;;;8.38;73.06;98304.94;6157216;23;20404;-81
2022/05/28 00:37:45;;;;;;;8.03;4.20;;;;;;;8.33;72.54;98305.94;6182978;23;20143;-79
2022/05/28 00:40:23;;;;;;;6.40;4.72;;;;;;;8.25;72.84;98296.59;6157005;23;20021;-79
2022/05/28 00:42:49;;;;;;;7.53;4.35;;;;;;;8.13;72.84;98296.91;6183491;23;20168;-79
2022/05/28 00:45:16;;;;;;;9.15;5.03;;;;;;;8.03;73.04;98304.03;6158817;23;20016;-80
2022/05/28 00:47:51;;;;;;;9.25;4.93;;;;;;;7.86;72.36;98306.97;6163099;23;20016;-80
2022/05/28 00:50:19;;;;;;;9.10;4.50;;;;;;;7.77;72.99;98302.84;6159966;23;20017;-80
2022/05/28 00:52:46;;;;;;;7.43;4.60;;;;;;;7.63;73.10;98291.91;6159419;23;20044;-81
2022/05/28 00:55:13;;;;;;;7.32;4.47;;;;;;;7.66;74.28;98292.72;6169225;23;20017;-78
2022/05/28 00:57:42;;;;;;;5.78;3.90;;;;;;;7.71;74.09;98287.44;6185452;23;20154;-79
2022/05/28 01:00:16;;;;;;;6.85;3.97;;;;;;;7.78;74.16;98291.63;6181518;23;20016;-80
2022/05/28 01:02:57;;;;;;;4.85;3.47;;;;;;;7.88;73.97;98300.03;6158979;23;20438;-79
2022/05/28 01:05:34;;;;;;;6.85;3.70;;;;;;;7.81;73.80;98269.97;6157187;23;20016;-80
2022/05/28 01:08:19;;;;;;;4.38;3.58;;;;;;;7.94;73.75;98275.72;6156231;23;20107;-79
2022/05/28 01:10:56;;;;;;;5.97;3.50;;;;;;;8.07;74.03;98286.66;6131774;23;20100;-79
2022/05/28 01:13:25;;;;;;;6.53;4.38;;;;;;;8.09;74.19;98282.31;6155721;23;20020;-79
2022/05/28 01:16:14;;;;;;;7.43;3.78;;;;;;;8.10;74.19;98286.59;6156263;23;20362;-79
2022/05/28 01:18:50;;;;;;;7.43;4.28;;;;;;;7.96;73.63;98261.84;6153389;23;20029;-80
2022/05/28 01:21:45;;;;;;;11.50;4.18;;;;;;;8.11;74.03;98277.94;6105360;23;20076;-80
2022/05/28 01:24:23;;;;;;;9.10;3.70;;;;;;;8.02;73.99;98257.41;6111210;23;20017;-80
2022/05/28 01:26:59;;;;;;;7.15;3.97;;;;;;;8.08;73.78;98263.31;6127964;23;20459;-79
2022/05/28 01:29:31;;;;;;;6.20;4.28;;;;;;;8.22;73.64;98272.50;6153666;23;20029;-79
2022/05/28 01:31:59;;;;;;;;;;;;;;;8.20;73.24;98264.75;6131327;23;20486;-78
2022/05/28 01:34:28;;;;;;;6.07;3.53;;;;;;;8.25;73.91;98265.50;6166756;23;19916;-78
2022/05/28 01:36:56;;;;;;;5.25;3.78;;;;;;;8.23;73.39;98259.50;6160525;23;20013;-79
2022/05/28 01:39:23;;;;;;;5.45;3.80;;;;;;;8.23;73.35;98256.91;6107496;23;20021;-80
2022/05/28 01:41:50;;;;;;;4.90;3.42;;;;;;;8.26;73.53;98249.06;6114116;23;20021;-79
2022/05/28 01:44:28;;;;;;;6.30;3.42;;;;;;;8.38;73.49;98258.28;6113632;23;20108;-81
2022/05/28 01:46:55;;;;;;;6.00;3.40;;;;;;;8.31;73.35;98236.00;6130873;23;20092;-78
2022/05/28 01:49:23;;;;;;;3.78;3.35;;;;;;;8.23;72.90;98222.38;6128952;23;20084;-78
2022/05/28 01:51:58;;;;;;;5.55;3.80;;;;;;;8.39;73.23;98252.22;6080101;23;20032;-80
2022/05/28 01:54:29;;;;;;;8.35;3.50;;;;;;;8.40;73.23;98256.50;6131197;23;20025;-80
2022/05/28 01:56:56;;;;;;;6.13;3.63;;;;;;;8.39;73.53;98236.66;6162657;23;20021;-78
2022/05/28 01:59:27;;;;;;;4.85;3.30;;;;;;;8.56;73.47;98220.72;6166784;23;20017;-80
2022/05/28 02:01:56;;;;;;;5.85;3.58;;;;;;;8.71;73.14;98216.88;6154017;23;20024;-79
2022/05/28 02:04:22;;;;;;;6.22;3.42;;;;;;;8.86;73.36;98223.38;6154284;23;20046;-80
2022/05/28 02:06:49;;;;;;;3.67;3.20;;;;;;;9.13;73.54;98225.28;6130302;23;20053;-80
2022/05/28 02:09:24;;;;;;;5.15;3.33;;;;;;;9.33;73.14;98227.28;6154652;23;20017;-80
2022/05/28 02:12:28;;;;;;;8.00;3.67;;;;;;;9.54;72.49;98224.94;6155989;23;20006;-80
2022/05/28 02:14:58;;;;;;;5.30;3.30;;;;;;;9.49;72.65;98219.91;6137572;23;20203;-80
2022/05/28 02:17:39;;;;;;;7.45;3.70;;;;;;;9.46;71.92;98217.38;6150769;23;20075;-81
2022/05/28 02:20:09;;;;;;;6.97;3.53;;;;;;;9.37;72.02;98207.28;6207362;23;20078;-79
2022/05/28 02:22:52;;;;;;;11.32;3.47;;;;;;;9.34;72.23;98208.22;6198910;23;20021;-79
2022/05/28 02:25:27;;;;;;;10.52;3.88;;;;;;;9.45;72.29;98203.56;6157751;23;20021;-80
2022/05/28 02:27:55;;;;;;;4.40;3.20;;;;;;;9.54;71.58;98217.16;6183291;23;20104;-80
2022/05/28 02:30:21;;;;;;;6.45;3.50;;;;;;;9.43;71.42;98217.47;6182969;23;20021;-79
2022/05/28 02:32:47;;;;;;;9.77;3.65;;;;;;;9.31;71.66;98200.50;6182061;23;20091;-77
2022/05/28 02:35:14;;;;;;;6.82;3.35;;;;;;;9.31;72.05;98210.91;6159070;23;20076;-78
2022/05/28 02:37:40;;;;;;;6.40;3.85;;;;;;;9.34;72.02;98213.41;6184503;23;20120;-81
2022/05/28 02:40:07;;;;;;;7.70;3.40;;;;;;;9.37;72.12;98209.88;6158477;23;20132;-80
2022/05/28 02:42:33;;;;;;;8.77;3.95;;;;;;;9.39;72.26;98197.69;6132963;23;20017;-84
2022/05/28 02:44:59;;;;;;;6.05;3.10;;;;;;;9.60;72.41;98212.63;6132615;23;20023;-80
2022/05/28 02:47:26;;;;;;;6.25;3.60;;;;;;;9.78;71.93;98212.97;6109651;23;20021;-80
2022/05/28 02:49:53;;;;;;;4.68;2.90;;;;;;;9.94;71.83;98213.31;6184164;23;20023;-79
2022/05/28 02:52:19;;;;;;;5.60;3.10;;;;;;;10.10;72.13;98211.09;6184119;23;20023;-81
2022/05/28 02:54:46;;;;;;;3.95;2.83;;;;;;;10.18;71.87;98209.09;6184118;23;20100;-79
2022/05/28 02:57:11;;;;;;;6.78;3.80;;;;;;;10.21;71.71;98180.41;6158186;23;20445;-79
2022/05/28 02:59:37;;;;;;;5.28;2.97;;;;;;;10.64;71.69;98208.50;6157985;23;20119;-81
2022/05/28 03:02:04;;;;;;;6.40;3.75;;;;;;;10.77;71.64;98190.72;6158979;23;20044;-81
2022/05/28 03:04:31;;;;;;;8.68;3.75;;;;;;;10.93;70.70;98191.00;6157875;23;20027;-79
2022/05/28 03:07:00;;;;;;;6.22;3.40;;;;;;;11.13;70.48;98200.69;6158315;23;20021;-79
2022/05/28 03:09:29;;;;;;;12.48;4.55;;;;;;;11.13;70.22;98196.34;6158730;23;20013;-81
2022/05/28 03:11:55;;;;;;;4.25;3.42;;;;;;;11.24;70.10;98195.97;6157733;23;20416;-80
2022/05/28 03:14:22;;;;;;;6.85;2.90;;;;;;;11.19;69.88;98187.47;6133717;23;20051;-82
2022/05/28 03:16:48;;;;;;;7.88;3.60;;;;;;;11.23;69.73;98196.00;6128122;23;20029;-80
2022/05/28 03:19:14;;;;;;;5.70;3.17;;;;;;;11.19;69.58;98182.25;6156481;23;20083;-82
2022/05/28 03:21:40;;;;;;;4.13;3.15;;;;;;;11.34;69.14;98201.66;6154594;23;20039;-81
2022/05/28 03:24:07;;;;;;;5.95;3.20;;;;;;;11.35;68.92;98199.91;6153885;23;20455;-82
2022/05/28 03:26:34;;;;;;;8.77;3.40;;;;;;;11.37;68.76;98172.03;6127881;23;20072;-81
2022/05/28 03:29:00;;;;;;;5.25;3.10;;;;;;;11.46;68.66;98174.31;6128274;23;20073;-80
2022/05/28 03:31:28;;;;;;;5.72;3.42;;;;;;;11.50;68.30;98173.25;6155495;23;20065;-79
2022/05/28 03:33:54;;;;;;;5.25;3.05;;;;;;;11.62;68.13;98184.97;6130897;23;20017;-81
2022/05/28 03:36:21;;;;;;;5.65;3.38;;;;;;;11.52;67.83;98158.44;6131397;23;20032;-81
2022/05/28 03:38:48;;;;;;;8.32;3.40;;;;;;;11.55;67.66;98154.88;6131035;23;20017;-80
2022/05/28 03:41:14;;;;;;;4.28;3.40;;;;;;;11.73;67.92;98179.34;6131655;23;20013;-79
2022/05/28 03:43:40;;;;;;;5.38;3.72;;;;;;;11.73;67.50;98167.16;6132353;23;20112;-80
2022/05/28 03:46:19;;;;;;;11.30;3.58;;;;;;;11.87;67.55;98184.00;6138353;23;20072;-79
2022/05/28 03:48:45;;;;;;;8.75;3.60;;;;;;;11.75;67.02;98165.34;6135008;23;20104;-80
2022/05/28 03:51:12;;;;;;;6.57;3.63;;;;;;;11.66;66.60;98170.09;6159026;23;20017;-81
2022/05/28 03:53:38;;;;;;;11.27;3.30;;;;;;;11.47;66.75;98164.72;6155842;23;20079;-81
2022/05/28 03:56:04;;;;;;;6.13;3.40;;;;;;;11.50;67.24;98172.44;6163137;23;20017;-82
2022/05/28 03:58:52;;;;;;;5.88;3.15;;;;;;;11.43;67.45;98167.44;6162287;23;20045;-81
2022/05/28 04:01:18;;;;;;;6.30;2.80;;;;;;;11.09;67.31;98101.06;6164464;23;20024;-81
2022/05/28 04:03:44;;;;;;;11.10;4.30;;;;;;;11.50;66.43;98167.22;6158503;23;20443;-81
2022/05/28 04:06:11;;;;;;;7.20;3.50;;;;;;;11.32;66.87;98156.59;6130451;23;20028;-80
2022/05/28 04:08:37;;;;;;;9.90;3.40;;;;;;;11.36;67.16;98170.34;6128824;23;20021;-80
2022/05/28 04:11:04;;;;;;;6.20;3.40;;;;;;;11.14;67.35;98140.75;6159001;23;20022;-80
2022/05/28 04:13:30;;;;;;;7.15;3.42;;;;;;;11.35;67.32;98161.69;6156185;23;20020;-80
2022/05/28 04:15:57;;;;;;;9.48;4.10;;;;;;;11.30;66.79;98161.03;6137717;23;20375;-80
2022/05/28 04:18:24;;;;;;;7.13;4.00;;;;;;;11.21;67.24;98163.97;6183682;23;20020;-82
2022/05/28 04:20:50;;;;;;;6.53;3.88;;;;;;;11.28;67.59;98160.22;6183840;23;20079;-80
2022/05/28 04:23:16;;;;;;;6.40;3.40;;;;;;;11.13;67.27;98133.88;6184298;23;20434;-81
2022/05/28 04:25:42;;;;;;;6.43;3.30;;;;;;;11.29;67.62;98151.50;6184076;23;20035;-81
2022/05/28 04:28:09;;;;;;;5.88;3.53;;;;;;;11.24;67.43;98133.47;6184810;23;20051;-79
2022/05/28 04:30:35;;;;;;;6.05;3.55;;;;;;;11.40;67.23;98156.31;6164507;23;20021;-81
2022/05/28 04:33:01;;;;;;;6.72;4.03;;;;;;;11.55;67.52;98157.47;6170954;23;20020;-78
2022/05/28 04:35:27;;;;;;;4.40;3.63;;;;;;;11.69;67.37;98151.72;6184857;23;20020;-79
2022/05/28 04:37:54;;;;;;;6.63;3.10;;;;;;;11.80;67.27;98164.34;6184230;23;20444;-79
2022/05/28 04:40:21;;;;;;;5.10;3.30;;;;;;;11.74;66.94;98155.84;6108181;23;20017;-80
2022/05/28 04:42:49;;;;;;;6.28;3.40;;;;;;;11.78;67.28;98163.53;6183616;23;20071;-80
2022/05/28 04:45:19;;;;;;;4.38;3.53;;;;;;;11.76;67.05;98166.19;6158166;23;20402;-81
2022/05/28 04:47:48;;;;;;;6.70;3.20;;;;;;;11.71;66.72;98158.56;6108301;23;20017;-77
2022/05/28 04:50:17;;;;;;;8.65;3.70;;;;;;;11.78;67.08;98156.56;6132693;23;20107;-79
2022/05/28 04:52:51;;;;;;;5.38;3.38;;;;;;;11.93;66.99;98152.50;6133184;23;20020;-79
2022/05/28 04:55:22;;;;;;;6.88;3.30;;;;;;;12.00;66.92;98142.69;6157455;23;20032;-79
2022/05/28 04:57:55;;;;;;;5.85;3.08;;;;;;;11.48;67.00;98059.63;6157283;23;20017;-79
2022/05/28 05:00:48;;;;;;;6.95;3.65;;;;;;;12.03;67.12;98109.50;6120186;23;20465;-79
2022/05/28 05:03:27;;;;;;;7.88;3.83;;;;;;;12.34;66.79;98131.69;6183175;23;20478;-79
2022/05/28 05:05:53;;;;;;;11.63;4.03;;;;;;;12.48;66.91;98119.81;6183073;23;20071;-80
2022/05/28 05:08:19;;;;;;;7.18;3.60;;;;;;;12.61;66.49;98115.75;6137001;23;20232;-79
2022/05/28 05:10:51;;;;;;;10.88;4.43;;;;;;;12.55;65.94;98104.75;6161576;23;20021;-81
2022/05/28 05:13:57;;;;;;;;;;;;;;;;;;;;;
2022/05/28 05:16:27;;;;;;;7.70;3.70;;;;;;;12.77;65.99;98110.72;6137096;23;20032;-79
2022/05/28 05:18:54;;;;;;;5.57;3.20;;;;;;;12.90;65.50;98118.84;6184724;23;20021;-78
2022/05/28 05:21:23;;;;;;;10.07;3.30;;;;;;;13.10;65.33;98137.97;6159907;23;20017;-77
2022/05/28 05:23:49;;;;;;;4.50;2.85;;;;;;;13.08;65.07;98142.41;6134301;23;20016;-79
2022/05/28 05:26:18;;;;;;;7.07;3.45;;;;;;;13.14;65.21;98149.13;6183372;23;20017;-80
2022/05/28 05:28:44;;;;;;;6.80;3.45;;;;;;;13.20;64.83;98141.84;6159581;23;20024;-81
2022/05/28 05:31:12;;;;;;;6.10;3.17;;;;;;;13.25;64.88;98141.63;6137592;23;20017;-81
2022/05/28 05:33:38;;;;;;;6.68;3.25;;;;;;;13.21;64.63;98138.31;6135411;23;20436;-79
2022/05/28 05:36:04;;;;;;;8.02;2.75;;;;;;;13.15;64.78;98125.53;6157802;23;20024;-81
2022/05/28 05:38:30;;;;;;;7.05;3.17;;;;;;;13.14;64.39;98128.22;6134196;23;20028;-81
2022/05/28 05:40:56;;;;;;;8.68;2.95;;;;;;;13.15;64.60;98133.38;6159126;23;20016;-80
2022/05/28 05:43:22;;;;;;;7.50;3.40;;;;;;;13.22;64.41;98136.56;6189070;23;20017;-81
2022/05/28 05:46:01;;;;;;;8.25;3.85;;;;;;;12.86;64.23;98090.31;6170936;23;20016;-81
2022/05/28 05:48:30;;;;;;;8.30;3.25;;;;;;;13.16;64.32;98136.84;6169853;23;20021;-77
2022/05/28 05:51:03;;;;;;;7.40;3.65;;;;;;;13.07;64.48;98132.88;6165957;23;20017;-82
2022/05/28 05:53:29;;;;;;;8.07;3.22;;;;;;;13.16;64.56;98140.28;6187672;23;20536;-78
2022/05/28 05:55:55;;;;;;;7.22;3.08;;;;;;;13.04;64.21;98118.19;6157017;23;20040;-79
2022/05/28 05:58:22;;;;;;;6.32;3.20;;;;;;;13.15;63.98;98135.16;6135988;23;20426;-80
2022/05/28 06:00:48;;;;;;;10.82;3.25;;;;;;;13.11;63.83;98140.50;6164329;23;20012;-80
2022/05/28 06:03:23;;;;;;;8.73;3.20;;;;;;;12.98;64.46;98112.41;6196537;23;20017;-81
2022/05/28 06:06:07;;;;;;;6.93;3.08;;;;;;;13.28;63.69;98145.88;6125608;23;20528;-81
2022/05/28 06:08:33;;;;;;;3.53;2.70;;;;;;;13.42;63.85;98147.88;6113280;23;20023;-80
2022/05/28 06:10:59;;;;;;;3.78;2.60;;;;;;;13.57;63.25;98144.53;6159691;23;20390;-81
2022/05/28 06:13:35;;;;;;;5.68;3.30;;;;;;;13.76;63.58;98146.25;6184489;23;20012;-80
2022/05/28 06:16:04;;;;;;;12.38;3.00;;;;;;;13.85;62.95;98154.50;6187845;23;20019;-79
2022/05/28 06:18:34;;;;;;;7.10;2.65;;;;;;;13.88;63.02;98144.81;6108889;23;20025;-78
2022/05/28 06:21:00;;;;;;;4.80;2.60;;;;;;;13.20;62.77;98049.59;6132694;23;20017;-80
2022/05/28 06:23:41;;;;;;;6.20;3.45;;;;;;;13.92;63.16;98146.38;6156590;23;20063;-80
2022/05/28 06:26:15;;;;;;;4.65;2.88;;;;;;;14.01;62.86;98151.16;6181342;23;20087;-82
2022/05/28 06:28:47;;;;;;;5.88;3.20;;;;;;;14.00;63.07;98152.09;6183766;23;20096;-80
2022/05/28 06:31:13;;;;;;;6.13;2.60;;;;;;;13.98;62.61;98153.94;6156732;23;20017;-80
2022/05/28 06:33:41;;;;;;;10.05;3.13;;;;;;;13.67;62.97;98118.81;6156077;23;20017;-79
2022/05/28 06:36:25;;;;;;;;;;;;;;;;;;;;;
2022/05/28 06:38:54;;;;;;;5.65;2.92;;;;;;;13.89;62.73;98160.44;6178588;23;20017;-79
2022/05/28 06:41:22;;;;;;;4.65;2.50;;;;;;;13.91;62.73;98139.44;6164571;23;20023;-79
2022/05/28 06:44:05;;;;;;;5.97;2.72;;;;;;;13.67;62.49;98097.91;6182451;23;20016;-80
2022/05/28 06:47:18;;;;;;;8.35;2.70;;;;;;;13.66;62.56;98072.69;6132396;23;20021;-79
2022/05/28 06:53:25;;;;;;;4.03;2.75;;;;;;;13.89;62.03;98117.75;6183501;23;20548;-80
2022/05/28 06:56:27;;;;;;;4.55;2.83;;;;;;;13.72;61.79;98098.53;6188917;23;20459;-81
2022/05/28 06:58:54;;;;;;;5.90;3.40;;;;;;;13.90;61.55;98154.31;6183623;23;20017;-80
2022/05/28 07:04:15;;;;;;;4.38;2.70;;;;;;;13.60;62.07;98112.16;6160192;23;20017;-80
2022/05/28 07:06:44;;;;;;;6.00;3.13;;;;;;;13.93;62.17;98155.91;6185909;23;20021;-78
2022/05/28 07:09:10;;;;;;;7.38;3.10;;;;;;;13.89;62.08;98151.75;6136354;23;20017;-79
2022/05/28 07:11:40;;;;;;;6.70;3.38;;;;;;;13.86;61.86;98153.59;6185234;23;20017;-85
2022/05/28 07:14:06;;;;;;;5.82;3.60;;;;;;;13.97;62.20;98181.00;6160633;23;20021;-79
2022/05/28 07:16:58;;;;;;;6.22;3.30;;;;;;;14.03;61.97;98187.69;6162805;23;20029;-81
2022/05/28 07:19:29;;;;;;;8.55;3.20;;;;;;;13.41;61.97;98092.16;6159457;23;20028;-81
2022/05/28 07:23:04;;;;;;;4.57;2.85;;;;;;;14.00;62.00;98191.31;6131683;23;20031;-80
2022/05/28 07:25:31;;;;;;;4.53;3.13;;;;;;;14.07;62.11;98202.31;5997215;23;20023;-81
2022/05/28 07:31:31;;;;;;;5.13;3.45;;;;;;;14.05;62.12;98181.44;6196816;23;20104;-78
2022/05/28 07:34:14;;;;;;;5.72;2.97;;;;;;;13.79;61.95;98149.56;6158416;23;20141;-80
2022/05/28 07:37:01;;;;;;;7.20;3.45;;;;;;;14.01;61.89;98185.16;6167953;23;20359;-79
2022/05/28 07:39:49;;;;;;;5.60;3.40;;;;;;;14.25;61.94;98218.84;6163919;23;20109;-79
2022/05/28 07:42:41;;;;;;;5.50;3.33;;;;;;;14.24;62.04;98196.22;6164137;23;20017;-79
2022/05/28 07:45:50;;;;;;;5.38;3.17;;;;;;;14.06;61.71;98148.31;6167894;23;20078;-80
2022/05/28 07:48:29;;;;;;;6.78;3.95;;;;;;;14.22;61.61;98159.69;6158930;23;20017;-78
2022/05/28 07:51:04;;;;;;;9.10;3.45;;;;;;;14.27;61.78;98169.91;6114316;23;20240;-81
2022/05/28 07:54:16;;;;;;;;;;;;;;;;;;;;;
2022/05/28 07:57:08;;;;;;;5.90;4.00;;;;;;;14.21;61.57;98165.03;5992864;23;20035;-80
2022/05/28 07:59:47;;;;;;;10.48;5.90;;;;;;;14.50;61.75;98200.19;6021238;23;20019;-79
2022/05/28 08:02:28;;;;;;;6.50;4.32;;;;;;;14.36;61.94;98197.38;6048375;23;20015;-80
2022/05/28 08:04:54;;;;;;;5.63;4.30;;;;;;;14.17;62.55;98169.53;6028618;23;20023;-77
2022/05/28 08:07:24;;;;;;;6.15;3.55;;;;;;;14.16;62.69;98170.47;6006078;23;20075;-78
2022/05/28 08:09:55;;;;;;;6.38;3.83;;;;;;;14.27;62.22;98202.19;6026890;23;20023;-79
2022/05/28 08:12:21;;;;;;;5.95;3.30;;;;;;;14.48;62.39;98240.41;6024374;23;20023;-80
2022/05/28 08:15:09;;;;;;;6.25;3.45;;;;;;;14.49;62.52;98252.59;6032036;23;20026;-78
2022/05/28 08:17:54;;;;;;;;;;;;;;;;;;;;;
2022/05/28 08:23:39;;;;;;;;;;;;;;;;;;;;;
2022/05/28 08:26:15;;;;;;;6.32;3.70;;;;;;;14.06;63.01;98217.13;6135382;23;20027;-79
2022/05/28 08:29:27;;;;;;;7.10;4.30;;;;;;;14.34;63.00;98268.13;6139546;23;20017;-80
2022/05/28 08:32:24;;;;;;;10.70;5.25;;;;;;;13.90;62.89;98201.38;6135383;23;20159;-80
2022/05/28 08:34:55;;;;;;;8.43;3.92;;;;;;;14.18;63.06;98282.88;6189940;23;20024;-80
2022/05/28 08:37:57;;;;;;;6.55;3.85;;;;;;;14.06;63.14;98279.91;6133287;23;20159;-81
2022/05/28 08:40:54;;;;;;;7.78;4.05;;;;;;;13.91;62.90;98284.09;6111403;23;20098;-78
2022/05/28 08:43:36;;;;;;;5.50;3.00;;;;;;;13.38;62.71;98220.28;6186313;23;20028;-80
2022/05/28 08:46:44;;;;;;;5.57;2.35;;;;;;;13.65;62.88;98294.00;6111783;23;20020;-82
2022/05/28 08:49:22;;;;;;;5.65;2.58;;;;;;;13.64;62.76;98302.75;6158080;23;20070;-80
2022/05/28 08:52:25;;;;;;;6.32;3.10;;;;;;;13.64;62.91;98294.91;6162017;23;20043;-78
2022/05/28 08:55:32;;;;;;;4.40;2.45;;;;;;;13.76;63.35;98296.13;6158204;23;20017;-81
2022/05/28 08:58:08;;;;;;;4.53;1.98;;;;;;;13.78;63.06;98309.13;6133888;23;20028;-80
2022/05/28 09:01:02;;;;;;;3.78;1.60;;;;;;;13.59;62.82;98285.56;6159198;23;20017;-80
2022/05/28 09:03:43;;;;;;;2.97;1.67;;;;;;;13.73;62.86;98298.00;6134917;23;20125;-80
2022/05/28 09:06:43;;;;;;;3.95;1.85;;;;;;;13.80;62.49;98305.50;6185817;23;20020;-81
2022/05/28 09:09:40;;;;;;;3.78;2.05;;;;;;;13.63;62.44;98293.22;6135952;23;20040;-84
2022/05/28 09:12:25;;;;;;;3.03;2.10;;;;;;;13.30;62.05;98243.31;6134959;23;20017;-81
2022/05/28 09:15:00;;;;;;;5.57;3.08;;;;;;;13.47;62.00;98276.50;6159339;23;20021;-80
2022/05/28 09:17:47;;;;;;;8.07;3.92;;;;;;;13.26;61.61;98255.63;6184760;23;20167;-80
2022/05/28 09:20:54;;;;;;;6.57;4.72;;;;;;;13.12;62.04;98258.88;6158879;23;20017;-80
2022/05/28 09:24:14;;;;;;;6.97;4.15;;;;;;;13.32;61.89;98328.50;6087203;23;20017;-85
2022/05/28 09:28:06;;;;;;;3.20;2.40;;;;;;;13.18;62.19;98339.56;6157576;23;20393;-85
2022/05/28 09:31:04;;;;;;;5.72;3.10;;;;;;;13.10;62.39;98344.28;6162436;23;20459;-83
2022/05/28 09:33:51;;;;;;;4.90;3.33;;;;;;;12.57;62.37;98283.78;6168417;23;20024;-82
2022/05/28 09:36:35;;;;;;;4.65;3.00;;;;;;;13.06;62.83;98351.38;6144218;23;20059;-79
2022/05/28 09:39:38;;;;;;;7.40;3.10;;;;;;;12.90;62.97;98325.06;6201833;23;20011;-84
2022/05/28 09:42:19;;;;;;;5.50;3.10;;;;;;;12.85;62.80;98321.81;6183337;23;20048;-88
2022/05/28 09:45:14;;;;;;;4.05;2.55;;;;;;;13.13;63.02;98357.16;6208458;23;20036;-83
2022/05/28 09:47:48;;;;;;;5.40;2.53;;;;;;;13.05;62.89;98352.28;6138550;23;20025;-83
2022/05/28 09:50:41;;;;;;;5.45;3.30;;;;;;;12.82;62.61;98319.31;6139351;23;20016;-80
2022/05/28 09:56:04;;;;;;;5.43;2.58;;;;;;;12.67;63.03;98312.97;6160945;23;20525;-81
2022/05/28 09:58:37;;;;;;;5.30;2.83;;;;;;;13.00;63.41;98356.88;6184990;23;20017;-81
2022/05/28 10:01:09;;;;;;;3.67;2.45;;;;;;;13.20;63.57;98368.22;6134542;23;20095;-81
2022/05/28 10:06:33;;;;;;;4.55;3.10;;;;;;;13.12;63.54;98329.38;6163672;23;20017;-82
2022/05/28 10:09:13;;;;;;;4.50;2.20;;;;;;;13.44;63.14;98340.22;6165386;23;20016;-85
2022/05/28 10:12:00;;;;;;;3.65;2.45;;;;;;;13.94;63.30;98375.47;6166487;23;20028;-77
2022/05/28 10:14:30;;;;;;;5.15;3.30;;;;;;;14.34;63.33;98396.34;6110496;23;20017;-79
2022/05/28 10:17:02;;;;;;;3.03;2.20;;;;;;;14.49;62.50;98380.81;6133753;23;20020;-79
2022/05/28 10:19:34;;;;;;;3.40;2.00;;;;;;;14.68;62.04;98397.38;6157472;23;20027;-79
2022/05/28 10:22:14;;;;;;;4.82;3.33;;;;;;;14.63;62.40;98375.78;6161151;23;20013;-78
2022/05/28 10:24:50;;;;;;;3.30;2.10;;;;;;;14.81;60.77;98396.78;6188463;23;20085;-80
2022/05/28 10:27:30;;;;;;;4.00;1.98;;;;;;;14.79;61.74;98411.72;6159909;23;20025;-78
2022/05/28 10:29:59;;;;;;;5.15;2.13;;;;;;;14.50;61.38;98356.34;6181807;23;20017;-79
2022/05/28 10:32:47;;;;;;;2.33;1.88;;;;;;;14.74;61.31;98404.09;6157372;23;20021;-78
2022/05/28 10:35:21;;;;;;;4.80;2.50;;;;;;;14.54;61.13;98358.75;6133025;23;20022;-79
2022/05/28 10:37:48;;;;;;;2.88;2.13;;;;;;;14.88;60.84;98404.28;6182315;23;20370;-79
2022/05/28 10:40:19;;;;;;;2.33;1.80;;;;;;;14.84;60.47;98413.19;6161181;23;20021;-79
2022/05/28 10:42:46;;;;;;;2.78;2.08;;;;;;;14.67;60.07;98385.19;6157888;23;20021;-75
2022/05/28 10:45:18;;;;;;;3.80;2.30;;;;;;;14.85;60.33;98411.44;6182890;23;20066;-77
2022/05/28 10:48:12;;;;;;;5.10;2.03;;;;;;;14.64;60.09;98381.84;6158638;23;20021;-83
2022/05/28 10:51:05;;;;;;;2.88;2.03;;;;;;;14.94;59.83;98415.38;6183789;23;20431;-78
2022/05/28 10:53:39;;;;;;;3.83;2.30;;;;;;;15.01;59.72;98417.63;6182783;23;20021;-80
2022/05/28 10:56:39;;;;;;;5.30;2.42;;;;;;;15.12;59.77;98410.97;6188450;23;20136;-77
2022/05/28 10:59:43;;;;;;;3.03;2.33;;;;;;;15.30;59.42;98428.44;6159480;23;20024;-78
2022/05/28 11:02:36;;;;;;;5.10;2.67;;;;;;;15.56;59.20;98421.00;6136042;23;20016;-78
2022/05/28 11:05:39;;;;;;;2.90;2.13;;;;;;;16.05;59.08;98422.88;6184613;23;20083;-76
2022/05/28 11:08:35;;;;;;;2.90;2.10;;;;;;;16.25;58.29;98387.66;6158345;23;20443;-79
2022/05/28 11:11:22;;;;;;;3.78;1.92;;;;;;;16.85;57.00;98430.78;6158047;23;20023;-79
2022/05/28 11:13:51;;;;;;;3.75;1.83;;;;;;;17.05;56.54;98423.56;6189080;23;20027;-78
2022/05/28 11:16:24;;;;;;;4.57;1.67;;;;;;;16.86;56.59;98427.22;6159122;23;20021;-79
2022/05/28 11:19:02;;;;;;;3.05;1.30;;;;;;;16.56;55.45;98393.84;6187752;23;20429;-76
2022/05/28 11:21:50;;;;;;;2.13;1.40;;;;;;;16.63;55.70;98428.50;6185577;23;20058;-78
2022/05/28 11:24:22;;;;;;;1.50;1.20;;;;;;;16.66;55.26;98432.75;6186685;23;20013;-79
2022/05/28 11:26:54;;;;;;;2.05;1.30;;;;;;;16.78;55.45;98429.41;6157071;23;20066;-77
2022/05/28 11:29:22;;;;;;;4.80;1.33;;;;;;;16.91;54.87;98431.34;6182138;23;20078;-77
2022/05/28 11:31:56;;;;;;;4.53;1.67;;;;;;;16.90;53.92;98414.75;6184247;23;20102;-78
2022/05/28 11:34:28;;;;;;;4.45;1.38;;;;;;;16.94;53.68;98418.03;6134902;23;20453;-78
2022/05/28 11:37:02;;;;;;;5.03;1.83;;;;;;;16.79;53.45;98420.59;6161796;23;20021;-76
2022/05/28 11:39:45;;;;;;;6.50;1.92;;;;;;;16.83;52.84;98429.16;6161064;23;20044;-77
2022/05/28 11:42:37;;;;;;;2.72;1.15;;;;;;;16.83;52.42;98429.16;6166972;23;20363;-77
2022/05/28 11:45:18;;;;;;;5.00;2.00;;;;;;;16.52;52.69;98391.50;6157874;23;20021;-79
2022/05/28 11:48:06;;;;;;;3.90;1.40;;;;;;;16.64;52.00;98427.56;6184012;23;20027;-78
2022/05/28 11:53:47;;;;;;;1.92;1.42;;;;;;;16.76;51.62;98431.28;6126780;23;20021;-78
2022/05/28 11:56:32;;;;;;;4.10;1.17;;;;;;;16.83;51.72;98442.28;6156818;23;20021;-77
2022/05/28 11:59:36;;;;;;;1.80;1.17;;;;;;;16.21;50.95;98344.19;6183230;23;20024;-79
2022/05/28 12:02:28;;;;;;;1.70;1.30;;;;;;;16.80;51.40;98445.94;6157785;23;20522;-78
2022/05/28 12:05:37;;;;;;;5.07;1.42;;;;;;;16.88;50.95;98450.75;6154939;23;20111;-78
2022/05/28 12:08:35;;;;;;;5.68;1.40;;;;;;;16.08;51.04;98356.25;6132391;23;20031;-79
2022/05/28 12:11:30;;;;;;;3.28;1.40;;;;;;;16.55;50.67;98451.72;6158026;23;20103;-78
2022/05/28 12:14:00;;;;;;;2.17;1.35;;;;;;;16.35;50.48;98451.00;6123125;23;20051;-77
2022/05/28 12:20:39;;;;;;;4.88;1.42;;;;;;;16.10;50.30;98462.84;6135974;23;20028;-78
2022/05/28 12:23:05;;;;;;;5.38;1.50;;;;;;;15.63;49.81;98405.81;6067558;23;20018;-78
2022/05/28 12:25:39;;;;;;;5.57;1.50;;;;;;;15.93;49.99;98461.09;6147243;23;20052;-79
2022/05/28 12:28:25;;;;;;;4.78;1.70;;;;;;;15.79;49.64;98432.06;6162094;23;20024;-78
2022/05/28 12:30:54;;;;;;;4.80;1.40;;;;;;;16.00;49.82;98456.38;6133914;23;20529;-77
2022/05/28 12:33:54;;;;;;;5.78;1.75;;;;;;;16.04;49.64;98454.41;6132047;23;20493;-77
2022/05/28 12:36:49;;;;;;;5.30;1.02;;;;;;;15.95;49.52;98459.25;6154896;23;20067;-78
2022/05/28 12:39:32;;;;;;;2.13;1.20;;;;;;;15.95;49.59;98474.97;6183435;23;20016;-80
2022/05/28 12:45:34;;;;;;;1.80;1.17;;;;;;;15.34;49.21;98393.25;6156972;23;20082;-78
2022/05/28 12:48:21;;;;;;;2.10;1.05;;;;;;;15.74;49.17;98476.06;6157103;23;20020;-80
2022/05/28 12:51:04;;;;;;;2.55;0.95;;;;;;;15.57;49.39;98472.50;6182545;23;20072;-78
2022/05/28 12:54:03;;;;;;;4.95;2.00;;;;;;;15.36;49.12;98456.94;6156529;23;20366;-77